Time;durP1;ratioP1;P1;durP2;ratioP2;P2;SDS_P1;SDS_P2;PMS_P1;PMS_P2;Temp;Humidity;BMP_temperature;BMP_pressure;BME280_temperature;BME280_humidity;BME280_pressure;Samples;Min_cycle;Max_cycle;Signal;HPM_P1;HPM_P2
2022/03/19 10:34:22;;;;;;;7.03;2.95;;;;;;;20.11;24.84;104251.34;5125245;27;20392;-67
2022/03/19 10:36:48;;;;;;;6.82;2.90;;;;;;;20.19;25.07;104235.81;5108221;28;20036;-66
2022/03/19 10:39:26;;;;;;;7.10;2.80;;;;;;;19.96;26.45;104244.63;5107650;28;20033;-66
2022/03/19 10:41:53;;;;;;;9.65;3.80;;;;;;;20.04;25.37;104242.59;5110112;28;20027;-67
2022/03/19 10:44:20;;;;;;;6.88;3.17;;;;;;;19.83;25.95;104230.66;5108742;28;20027;-67
2022/03/19 10:46:54;;;;;;;8.65;2.90;;;;;;;20.18;25.26;104222.44;5114972;28;20024;-67
2022/03/19 10:49:23;;;;;;;6.95;3.03;;;;;;;20.58;24.93;104213.06;5107224;28;20047;-67
2022/03/19 10:51:51;;;;;;;6.95;2.58;;;;;;;20.94;24.73;104213.59;5105796;28;20103;-67
2022/03/19 10:54:17;;;;;;;6.53;2.70;;;;;;;21.18;24.00;104202.91;5108336;28;20024;-66
2022/03/19 10:56:44;;;;;;;7.32;2.70;;;;;;;21.70;22.51;104192.00;5107690;28;20067;-68
2022/03/19 10:59:10;;;;;;;7.78;2.80;;;;;;;21.30;21.51;104214.16;5108074;28;20135;-66
2022/03/19 11:01:36;;;;;;;9.50;2.80;;;;;;;21.02;21.79;104196.31;5106980;28;20089;-67
2022/03/19 11:04:04;;;;;;;7.03;2.45;;;;;;;20.83;22.21;104185.31;5107955;28;20020;-67
2022/03/19 11:06:50;;;;;;;7.88;2.72;;;;;;;20.61;22.18;104195.00;5106595;28;20085;-67
2022/03/19 11:09:18;;;;;;;4.93;2.50;;;;;;;20.66;21.85;104175.09;5108052;28;20027;-66
2022/03/19 11:11:55;;;;;;;6.72;2.75;;;;;;;20.41;22.07;104182.19;5107021;28;20035;-66
2022/03/19 11:14:23;;;;;;;6.65;2.53;;;;;;;20.63;22.26;104187.72;5111903;28;20036;-66
2022/03/19 11:17:28;;;;;;;6.70;2.50;;;;;;;20.78;22.69;104175.56;5108161;28;20375;-66
2022/03/19 11:20:01;;;;;;;8.50;2.78;;;;;;;21.20;21.15;104176.78;5107170;28;20062;-67
2022/03/19 11:22:39;;;;;;;5.82;2.35;;;;;;;20.79;21.77;104168.38;5108743;28;20016;-67
2022/03/19 11:25:26;;;;;;;5.80;2.80;;;;;;;20.95;21.04;104177.66;5119376;28;20124;-67
2022/03/19 11:28:07;;;;;;;8.20;2.85;;;;;;;21.21;20.60;104159.66;5117111;27;20042;-67
2022/03/19 11:30:38;;;;;;;7.77;3.13;;;;;;;21.88;21.07;104155.31;5106751;28;20512;-67
2022/03/19 11:33:09;;;;;;;6.47;3.13;;;;;;;21.64;21.56;104158.97;5106680;28;20388;-67
2022/03/19 11:35:40;;;;;;;7.50;2.90;;;;;;;21.98;20.20;104149.53;5108688;28;20031;-68
2022/03/19 11:38:15;;;;;;;;;;;;;;;21.58;20.41;104147.47;5109161;28;20039;-67
2022/03/19 11:40:50;;;;;;;7.28;2.58;;;;;;;21.72;21.25;104151.47;5107808;28;19918;-67
2022/03/19 11:43:37;;;;;;;5.88;2.65;;;;;;;21.82;19.52;104139.38;5108310;28;20016;-67
2022/03/19 11:46:07;;;;;;;7.82;2.63;;;;;;;22.04;20.01;104136.66;5093584;28;20036;-66
2022/03/19 11:48:35;;;;;;;8.23;2.22;;;;;;;22.27;18.03;104124.88;5094670;28;20440;-66
2022/03/19 11:51:28;;;;;;;4.30;2.25;;;;;;;21.84;17.91;104113.22;5093618;28;20131;-66
2022/03/19 11:54:12;;;;;;;5.30;2.25;;;;;;;21.52;18.89;104119.84;5086813;28;20032;-67
2022/03/19 11:56:40;;;;;;;7.05;2.35;;;;;;;21.82;19.64;104114.22;5083081;28;20028;-67
2022/03/19 11:59:12;;;;;;;5.38;2.40;;;;;;;22.37;18.46;104103.81;5080301;28;20157;-67
2022/03/19 12:01:54;;;;;;;5.97;2.13;;;;;;;22.70;19.34;104100.56;5093921;28;20111;-67
2022/03/19 12:04:21;;;;;;;7.03;2.35;;;;;;;22.41;17.23;104110.81;5084607;28;20057;-67
2022/03/19 12:06:51;;;;;;;5.20;2.28;;;;;;;21.95;17.22;104101.09;5091978;28;20385;-67
2022/03/19 12:09:16;;;;;;;6.05;2.30;;;;;;;22.09;18.52;104085.19;5094901;28;20464;-67
2022/03/19 12:12:13;;;;;;;7.95;2.50;;;;;;;22.39;17.16;104088.44;5071256;28;20032;-67
2022/03/19 12:14:40;;;;;;;6.18;2.50;;;;;;;22.71;16.52;104083.41;5088469;28;20399;-66
2022/03/19 12:17:27;;;;;;;4.53;2.40;;;;;;;22.25;17.02;104088.09;5075934;28;20106;-67
2022/03/19 12:19:54;;;;;;;8.18;2.42;;;;;;;21.87;17.82;104071.75;5090829;28;20085;-66
2022/03/19 12:22:40;;;;;;;6.75;2.30;;;;;;;22.82;16.90;104065.84;5090858;28;20967;-66
2022/03/19 12:25:13;;;;;;;5.07;2.17;;;;;;;22.32;17.44;104064.44;5088986;28;20566;-66
2022/03/19 12:27:40;;;;;;;6.00;2.38;;;;;;;21.63;17.79;104062.84;5088627;28;20177;-67
2022/03/19 12:30:08;;;;;;;5.28;2.15;;;;;;;21.35;17.42;104058.53;5092661;28;20482;-67
2022/03/19 12:32:54;;;;;;;5.85;2.30;;;;;;;21.15;17.05;104052.09;5091081;28;20129;-67
2022/03/19 12:35:42;;;;;;;6.80;2.35;;;;;;;21.23;17.55;104049.13;5120783;27;20028;-66
2022/03/19 12:38:08;;;;;;;4.05;2.13;;;;;;;22.13;16.28;104035.53;5081802;28;20020;-66
2022/03/19 12:43:20;;;;;;;5.85;2.00;;;;;;;21.90;17.87;104034.69;5086927;28;20560;-66
2022/03/19 12:45:48;;;;;;;7.07;2.10;;;;;;;22.09;16.96;104032.09;5086527;28;20050;-66
2022/03/19 12:48:16;;;;;;;5.50;2.40;;;;;;;22.21;17.10;104016.31;5101316;28;20028;-65
2022/03/19 12:50:48;;;;;;;5.85;2.22;;;;;;;21.83;17.35;104016.13;5084468;28;20036;-67
2022/03/19 12:53:14;;;;;;;8.00;2.20;;;;;;;21.93;17.41;104023.78;5092115;28;20413;-67
2022/03/19 12:55:39;;;;;;;5.53;2.50;;;;;;;22.17;16.57;104018.25;5090502;28;20023;-66
2022/03/19 12:58:04;;;;;;;6.45;2.50;;;;;;;21.72;17.50;104012.06;5086968;28;20032;-66
2022/03/19 13:00:30;;;;;;;7.07;2.47;;;;;;;21.76;16.61;104005.63;5092938;28;20036;-66
2022/03/19 13:02:56;;;;;;;5.22;2.20;;;;;;;22.03;17.13;103988.31;5092236;28;20386;-65
2022/03/19 13:05:22;;;;;;;4.15;2.00;;;;;;;21.77;16.64;103974.13;5091686;28;20055;-66
2022/03/19 13:08:06;;;;;;;5.60;2.00;;;;;;;21.39;16.67;103979.28;5107247;28;20047;-66
2022/03/19 13:10:46;;;;;;;4.75;2.17;;;;;;;20.79;16.17;103971.75;5091421;28;20036;-65
2022/03/19 13:13:12;;;;;;;4.47;2.13;;;;;;;21.26;17.42;103979.75;5091414;28;21468;-66
2022/03/19 13:15:52;;;;;;;4.50;1.90;;;;;;;21.75;16.71;103978.69;5092848;28;20032;-67
2022/03/19 13:18:29;;;;;;;6.30;2.15;;;;;;;21.82;16.39;103969.41;5092799;28;20040;-67
2022/03/19 13:21:04;;;;;;;7.22;2.40;;;;;;;22.17;16.23;103952.59;5092549;28;20595;-67
2022/03/19 13:23:30;;;;;;;9.88;2.42;;;;;;;22.46;15.77;103956.72;5089872;28;20024;-66
2022/03/19 13:25:57;;;;;;;4.55;1.92;;;;;;;21.74;16.13;103945.47;5071368;28;20033;-66
2022/03/19 13:28:22;;;;;;;6.70;2.20;;;;;;;21.31;16.22;103932.91;5071244;28;20055;-66
2022/03/19 13:30:49;;;;;;;4.07;1.90;;;;;;;21.56;16.05;103938.16;5105147;28;20502;-65
2022/03/19 13:33:16;;;;;;;5.40;1.88;;;;;;;21.72;15.94;103935.69;5080480;28;20140;-66
2022/03/19 13:35:47;;;;;;;5.30;2.15;;;;;;;22.30;16.29;103932.19;5092315;28;20123;-66
2022/03/19 13:38:13;;;;;;;;;;;;;;;22.32;16.95;103922.22;5093009;28;20024;-66
2022/03/19 13:40:39;;;;;;;4.97;2.03;;;;;;;22.27;17.16;103919.72;5108518;28;19911;-67
2022/03/19 13:43:05;;;;;;;6.78;2.20;;;;;;;22.03;17.11;103920.84;5092749;28;20028;-66
2022/03/19 13:45:32;;;;;;;5.90;1.98;;;;;;;22.14;16.39;103915.84;5091795;28;20111;-67
2022/03/19 13:48:11;;;;;;;7.55;3.13;;;;;;;22.51;16.11;103921.41;5091380;28;20028;-66
2022/03/19 13:50:38;;;;;;;7.72;2.33;;;;;;;21.76;17.08;103910.31;5092672;28;20023;-67
2022/03/19 13:53:08;;;;;;;6.05;1.95;;;;;;;21.07;17.88;103896.09;5091069;28;20498;-67
2022/03/19 13:55:42;;;;;;;7.22;2.75;;;;;;;19.48;17.87;103900.16;5092126;28;20036;-67
2022/03/19 13:58:10;;;;;;;6.20;2.17;;;;;;;19.46;18.75;103891.28;5092295;28;20019;-67
2022/03/19 14:00:41;;;;;;;9.10;2.15;;;;;;;19.12;17.96;103881.66;5092520;28;20051;-67
2022/03/19 14:03:12;;;;;;;3.85;1.85;;;;;;;18.60;18.62;103881.47;5092502;28;20016;-67
2022/03/19 14:05:39;;;;;;;4.53;2.05;;;;;;;18.41;20.11;103878.44;5092061;28;20095;-66
2022/03/19 14:08:07;;;;;;;4.03;1.50;;;;;;;18.62;19.20;103873.34;5091778;28;20036;-67
2022/03/19 14:10:47;;;;;;;4.72;1.90;;;;;;;18.60;19.52;103865.34;5091680;28;20023;-67
2022/03/19 14:13:17;;;;;;;4.70;1.60;;;;;;;18.45;19.38;103863.16;5092084;28;20028;-67
2022/03/19 14:15:51;;;;;;;4.95;2.17;;;;;;;18.04;20.28;103855.38;5091322;28;20042;-66
2022/03/19 14:18:32;;;;;;;5.78;1.65;;;;;;;17.67;18.53;103857.25;5092189;28;20074;-66
2022/03/19 14:21:03;;;;;;;;;;;;;;;17.55;19.44;103851.34;5092626;28;20020;-66
2022/03/19 14:23:31;;;;;;;4.35;1.75;;;;;;;17.91;19.45;103862.00;5091446;28;19982;-66
2022/03/19 14:25:56;;;;;;;6.22;1.70;;;;;;;18.06;19.68;103858.03;5091651;28;20060;-66
2022/03/19 14:28:23;;;;;;;7.32;1.70;;;;;;;18.47;18.65;103843.38;5092074;28;20055;-66
2022/03/19 14:30:51;;;;;;;6.30;1.63;;;;;;;18.13;18.94;103832.78;5091973;28;20016;-66
2022/03/19 14:33:16;;;;;;;6.72;1.63;;;;;;;18.04;18.28;103833.06;5089562;28;20131;-67
2022/03/19 14:35:47;;;;;;;5.65;1.52;;;;;;;17.29;19.75;103843.06;5091059;28;20119;-66
2022/03/19 14:38:16;;;;;;;4.32;1.60;;;;;;;17.04;19.58;103827.59;5091675;28;20035;-66
2022/03/19 14:40:41;;;;;;;4.15;1.80;;;;;;;16.69;20.81;103831.09;5091197;28;20479;-67
2022/03/19 14:43:08;;;;;;;7.10;1.80;;;;;;;16.47;21.35;103817.31;5108228;28;20072;-67
2022/03/19 14:45:34;;;;;;;7.32;1.92;;;;;;;16.75;21.59;103811.34;5096713;28;20081;-66
2022/03/19 14:47:59;;;;;;;5.78;2.10;;;;;;;17.12;22.83;103813.16;5090456;28;20032;-66
2022/03/19 14:50:25;;;;;;;5.30;1.73;;;;;;;17.14;21.12;103804.16;5091195;28;20112;-66
2022/03/19 14:52:50;;;;;;;6.90;1.75;;;;;;;17.35;20.73;103799.16;5086243;28;20031;-66
2022/03/19 14:55:16;;;;;;;6.47;2.00;;;;;;;17.27;20.60;103796.69;5091373;28;20080;-66
2022/03/19 14:57:41;;;;;;;5.45;1.98;;;;;;;17.50;21.97;103804.09;5090966;28;20028;-66
2022/03/19 15:00:07;;;;;;;5.15;1.85;;;;;;;17.62;21.91;103792.19;5090736;28;20090;-66
2022/03/19 15:02:33;;;;;;;8.02;2.20;;;;;;;17.25;22.69;103790.50;5085643;28;20035;-66
2022/03/19 15:04:58;;;;;;;4.63;2.08;;;;;;;17.22;22.04;103787.03;5121889;27;20036;-65
2022/03/19 15:07:26;;;;;;;4.85;1.85;;;;;;;17.40;23.27;103789.19;5085280;28;20031;-65
2022/03/19 15:09:52;;;;;;;6.28;1.90;;;;;;;17.70;23.50;103778.59;5089565;28;20027;-65
2022/03/19 15:12:17;;;;;;;3.17;1.80;;;;;;;17.72;22.26;103766.00;5090053;28;20039;-64
2022/03/19 15:14:43;;;;;;;3.75;1.80;;;;;;;17.48;21.61;103772.91;5091140;28;20302;-64
2022/03/19 15:17:11;;;;;;;3.70;1.50;;;;;;;16.99;22.38;103762.56;5089678;28;20150;-64
2022/03/19 15:19:39;;;;;;;5.50;2.10;;;;;;;17.97;22.19;103760.84;5092852;28;20053;-66
2022/03/19 15:22:05;;;;;;;3.22;1.63;;;;;;;17.84;20.53;103749.56;5095100;28;20036;-66
2022/03/19 15:24:31;;;;;;;3.92;1.50;;;;;;;17.50;20.66;103745.16;5093835;28;20028;-66
2022/03/19 15:26:56;;;;;;;4.50;1.90;;;;;;;17.66;21.23;103748.31;5095240;28;20052;-66
2022/03/19 15:29:22;;;;;;;4.78;1.60;;;;;;;17.82;20.55;103737.13;5094080;28;20193;-66
2022/03/19 15:31:47;;;;;;;4.90;1.85;;;;;;;17.69;20.75;103750.03;5094559;28;20097;-66
2022/03/19 15:34:13;;;;;;;5.05;1.85;;;;;;;17.63;20.59;103743.00;5092872;28;20141;-66
2022/03/19 15:36:39;;;;;;;3.13;1.33;;;;;;;17.25;20.15;103744.09;5094218;28;20028;-66
2022/03/19 15:39:05;;;;;;;5.25;1.88;;;;;;;17.27;20.57;103737.75;5094622;28;20024;-66
2022/03/19 15:41:31;;;;;;;17.10;15.18;;;;;;;17.03;21.33;103748.22;5094885;28;20016;-66
2022/03/19 15:43:56;;;;;;;4.25;1.88;;;;;;;16.96;20.67;103732.34;5094557;28;20039;-66
2022/03/19 15:46:22;;;;;;;4.75;1.70;;;;;;;16.86;20.36;103742.38;5095002;28;20085;-66
2022/03/19 15:48:48;;;;;;;7.07;1.40;;;;;;;16.65;20.37;103739.31;5094925;28;20067;-66
2022/03/19 15:51:13;;;;;;;4.93;1.48;;;;;;;16.78;20.33;103733.69;5094853;28;20016;-66
2022/03/19 15:53:39;;;;;;;3.20;1.70;;;;;;;16.76;21.20;103735.50;5094595;28;20077;-65
2022/03/19 15:56:04;;;;;;;4.22;1.90;;;;;;;16.80;21.66;103732.72;5094280;28;20024;-66
2022/03/19 15:58:30;;;;;;;5.85;2.03;;;;;;;16.96;22.05;103730.53;5094316;28;20031;-65
2022/03/19 16:00:55;;;;;;;3.53;1.50;;;;;;;16.76;21.60;103725.66;5094104;28;20105;-65
2022/03/19 16:03:21;;;;;;;4.05;1.70;;;;;;;16.73;21.27;103712.38;5092834;28;20123;-65
2022/03/19 16:05:46;;;;;;;2.88;1.63;;;;;;;16.36;22.40;103723.97;5091988;28;20063;-65
2022/03/19 16:08:11;;;;;;;4.03;1.50;;;;;;;16.66;22.69;103706.31;5093691;28;20060;-65
2022/03/19 16:10:37;;;;;;;3.50;1.35;;;;;;;16.42;23.47;103715.81;5076051;28;20030;-65
2022/03/19 16:13:02;;;;;;;3.75;1.85;;;;;;;16.67;22.82;103715.19;5092442;28;20115;-66
2022/03/19 16:15:28;;;;;;;3.47;1.48;;;;;;;16.67;23.51;103709.84;5092363;28;20032;-66
2022/03/19 16:17:53;;;;;;;4.85;2.05;;;;;;;16.77;22.65;103697.13;5094012;28;20032;-65
2022/03/19 16:20:18;;;;;;;5.68;1.67;;;;;;;16.45;22.71;103698.78;5093013;28;20455;-66
2022/03/19 16:22:48;;;;;;;4.60;2.00;;;;;;;16.02;22.79;103706.91;5092753;28;20470;-66
2022/03/19 16:25:14;;;;;;;5.22;1.75;;;;;;;15.79;24.05;103707.34;5093727;28;20118;-66
2022/03/19 16:27:40;;;;;;;4.40;1.75;;;;;;;15.71;24.73;103699.47;5092313;28;20031;-65
2022/03/19 16:30:06;;;;;;;2.33;1.38;;;;;;;15.77;24.97;103702.94;5092798;28;20023;-65
2022/03/19 16:32:32;;;;;;;3.97;1.55;;;;;;;15.49;24.52;103698.19;5072051;28;20436;-65
2022/03/19 16:34:58;;;;;;;3.88;1.70;;;;;;;15.37;24.56;103700.19;5104388;28;20072;-66
2022/03/19 16:37:29;;;;;;;3.00;1.70;;;;;;;14.82;25.11;103702.06;5093201;28;20063;-66
2022/03/19 16:39:59;;;;;;;2.42;1.65;;;;;;;14.59;25.90;103697.97;5092658;28;20024;-65
2022/03/19 16:42:26;;;;;;;2.30;1.65;;;;;;;14.35;25.87;103701.88;5098367;28;20032;-65
2022/03/19 16:44:51;;;;;;;5.25;1.67;;;;;;;14.02;27.25;103708.59;5104112;28;20030;-66
2022/03/19 16:47:18;;;;;;;4.00;1.80;;;;;;;13.59;27.13;103700.22;5126214;27;20115;-66
2022/03/19 16:49:44;;;;;;;3.65;1.70;;;;;;;13.38;28.79;103692.50;5092415;28;20498;-66
2022/03/19 16:52:10;;;;;;;2.92;1.40;;;;;;;13.17;28.43;103689.13;5091690;28;20495;-66
2022/03/19 16:54:35;;;;;;;2.55;1.30;;;;;;;13.15;29.54;103692.69;5093449;28;20024;-66
2022/03/19 16:57:01;;;;;;;5.03;1.80;;;;;;;13.13;29.10;103691.81;5092900;28;20335;-64
2022/03/19 16:59:26;;;;;;;2.65;1.50;;;;;;;13.19;29.60;103687.31;5093349;28;20028;-65
2022/03/19 17:01:52;;;;;;;3.45;1.70;;;;;;;13.18;28.98;103696.19;5092892;28;20078;-65
2022/03/19 17:04:17;;;;;;;3.35;1.42;;;;;;;13.07;29.25;103695.44;5091701;28;20028;-66
2022/03/19 17:06:42;;;;;;;5.30;1.58;;;;;;;12.99;29.38;103692.81;5092795;28;20532;-66
2022/03/19 17:09:08;;;;;;;4.43;1.35;;;;;;;12.88;29.23;103700.91;5092708;28;20432;-66
2022/03/19 17:11:33;;;;;;;3.42;1.35;;;;;;;12.74;30.64;103689.53;5091747;28;20122;-66
2022/03/19 17:13:59;;;;;;;2.90;1.40;;;;;;;12.50;30.80;103702.09;5093112;28;20028;-65
2022/03/19 17:16:24;;;;;;;6.55;1.73;;;;;;;12.38;31.14;103695.09;5091086;28;20508;-65
2022/03/19 17:18:50;;;;;;;5.72;2.60;;;;;;;12.22;31.91;103688.97;5092954;28;20102;-67
2022/03/19 17:21:16;;;;;;;3.58;1.58;;;;;;;12.00;31.87;103692.66;5091588;28;20020;-65
2022/03/19 17:23:41;;;;;;;4.22;1.40;;;;;;;11.87;31.55;103687.38;5090769;28;20035;-65
2022/03/19 17:26:07;;;;;;;5.82;2.97;;;;;;;11.67;33.08;103692.75;5083718;28;20028;-66
2022/03/19 17:28:32;;;;;;;4.07;1.60;;;;;;;11.55;33.27;103693.69;5091453;28;20158;-66
2022/03/19 17:30:58;;;;;;;5.53;1.90;;;;;;;11.45;33.53;103690.16;5092498;28;20107;-66
2022/03/19 17:33:23;;;;;;;2.92;1.60;;;;;;;11.36;33.71;103689.34;5092292;28;20503;-66
2022/03/19 17:35:48;;;;;;;4.28;2.08;;;;;;;11.26;33.80;103681.38;5090609;28;20048;-66
2022/03/19 17:38:14;;;;;;;3.85;1.70;;;;;;;11.22;34.40;103694.66;5087119;28;20035;-66
2022/03/19 17:40:39;;;;;;;4.70;2.00;;;;;;;11.11;35.12;103698.22;5088249;28;20403;-66
2022/03/19 17:43:06;;;;;;;2.95;1.70;;;;;;;11.05;34.86;103695.56;5092139;28;20043;-66
2022/03/19 17:45:32;;;;;;;6.88;1.90;;;;;;;11.01;35.80;103692.91;5091001;28;20028;-66
2022/03/19 17:47:57;;;;;;;4.63;1.98;;;;;;;10.92;36.36;103699.09;5092251;28;20503;-66
2022/03/19 17:50:22;;;;;;;7.43;2.13;;;;;;;10.81;35.66;103702.63;5091916;28;20043;-66
2022/03/19 17:52:50;;;;;;;6.32;1.80;;;;;;;10.78;36.10;103693.78;5091738;28;20036;-65
2022/03/19 17:55:17;;;;;;;4.50;1.80;;;;;;;10.70;35.85;103703.53;5074246;28;20566;-66
2022/03/19 17:57:49;;;;;;;2.17;1.63;;;;;;;10.63;36.00;103702.63;5092029;28;20032;-66
2022/03/19 18:00:15;;;;;;;6.38;2.33;;;;;;;10.53;36.15;103692.91;5119937;27;20455;-66
2022/03/19 18:02:41;;;;;;;4.47;1.75;;;;;;;10.46;36.33;103690.25;5092029;28;20056;-66
2022/03/19 18:05:10;;;;;;;5.13;1.75;;;;;;;10.42;36.33;103706.13;5092149;28;20491;-66
2022/03/19 18:07:36;;;;;;;4.75;1.90;;;;;;;10.39;36.88;103708.78;5091922;28;20094;-66
2022/03/19 18:10:01;;;;;;;7.25;2.20;;;;;;;10.28;37.57;103693.72;5091794;28;20471;-66
2022/03/19 18:12:27;;;;;;;6.10;2.20;;;;;;;10.22;37.75;103703.38;5102230;28;20050;-66
2022/03/19 18:14:53;;;;;;;3.75;1.80;;;;;;;10.14;38.73;103701.63;5091196;28;20031;-66
2022/03/19 18:17:18;;;;;;;4.72;1.67;;;;;;;10.04;39.14;103698.91;5073496;28;20063;-66
2022/03/19 18:19:43;;;;;;;5.40;2.05;;;;;;;9.95;39.60;103698.03;5090661;28;20391;-66
2022/03/19 18:22:09;;;;;;;4.82;2.05;;;;;;;9.91;39.34;103695.34;5091905;28;20032;-66
2022/03/19 18:24:34;;;;;;;6.30;2.00;;;;;;;9.80;39.96;103697.97;5090599;28;20028;-66
2022/03/19 18:27:00;;;;;;;4.55;1.92;;;;;;;9.76;40.25;103686.47;5091870;28;20070;-66
2022/03/19 18:29:25;;;;;;;6.22;2.10;;;;;;;9.66;41.93;103685.53;5114660;27;20510;-66
2022/03/19 18:31:51;;;;;;;5.70;2.03;;;;;;;9.62;42.04;103696.13;5074887;28;20107;-66
2022/03/19 18:34:16;;;;;;;3.47;2.00;;;;;;;9.57;42.34;103698.72;5090335;28;20076;-66
2022/03/19 18:36:42;;;;;;;4.97;2.03;;;;;;;9.56;42.82;103696.97;5091216;28;20047;-67
2022/03/19 18:39:07;;;;;;;5.50;2.08;;;;;;;9.50;43.32;103702.22;5091972;28;20044;-65
2022/03/19 18:41:34;;;;;;;5.07;1.90;;;;;;;9.46;43.42;103703.06;5089618;28;20089;-65
2022/03/19 18:44:00;;;;;;;5.95;2.10;;;;;;;9.42;44.47;103698.66;5087602;28;20039;-68
2022/03/19 18:46:25;;;;;;;6.30;2.35;;;;;;;9.41;43.59;103694.22;5091169;28;20036;-67
2022/03/19 18:48:50;;;;;;;3.47;1.85;;;;;;;9.34;44.10;103691.53;5091666;28;20528;-65
2022/03/19 18:51:16;;;;;;;6.35;1.92;;;;;;;9.29;44.45;103684.47;5091829;28;20471;-66
2022/03/19 18:53:41;;;;;;;4.47;2.10;;;;;;;9.23;44.78;103687.06;5090327;28;20038;-65
2022/03/19 18:56:06;;;;;;;5.13;2.30;;;;;;;9.18;45.10;103682.63;5095529;28;20421;-65
2022/03/19 18:58:32;;;;;;;4.15;2.10;;;;;;;9.15;45.17;103689.66;5096206;28;20043;-65
2022/03/19 19:00:57;;;;;;;5.45;2.13;;;;;;;9.12;45.98;103694.94;5094521;28;20023;-65
2022/03/19 19:03:23;;;;;;;5.60;2.03;;;;;;;9.00;47.22;103688.69;5109002;28;20081;-65
2022/03/19 19:05:49;;;;;;;6.47;2.60;;;;;;;8.95;47.06;103697.44;5105338;28;20028;-66
2022/03/19 19:08:14;;;;;;;4.70;2.10;;;;;;;8.82;47.87;103692.06;5094402;28;20028;-66
2022/03/19 19:10:40;;;;;;;6.13;2.40;;;;;;;8.76;47.64;103691.09;5095416;28;20106;-66
2022/03/19 19:13:06;;;;;;;6.88;2.40;;;;;;;8.77;46.82;103687.59;5095506;28;20020;-67
2022/03/19 19:15:31;;;;;;;3.05;1.63;;;;;;;8.77;47.37;103688.50;5094410;28;20055;-67
2022/03/19 19:17:57;;;;;;;3.45;1.80;;;;;;;8.73;47.07;103694.59;5094173;28;20020;-67
2022/03/19 19:20:23;;;;;;;4.53;2.08;;;;;;;8.72;47.05;103690.22;5095312;28;20568;-67
2022/03/19 19:22:49;;;;;;;5.93;2.03;;;;;;;8.73;47.80;103685.81;5095198;28;20024;-66
2022/03/19 19:25:15;;;;;;;4.47;2.10;;;;;;;8.65;48.41;103683.09;5095104;28;20027;-66
2022/03/19 19:27:41;;;;;;;5.22;2.00;;;;;;;8.62;48.26;103680.41;5094739;28;20032;-67
2022/03/19 19:30:07;;;;;;;5.90;2.20;;;;;;;8.64;47.30;103690.13;5093043;28;20035;-68
2022/03/19 19:32:33;;;;;;;8.80;2.22;;;;;;;8.60;48.00;103682.19;5108250;28;20032;-67
2022/03/19 19:34:59;;;;;;;4.05;2.00;;;;;;;8.58;48.02;103682.16;5094178;28;20052;-67
2022/03/19 19:37:24;;;;;;;9.20;2.13;;;;;;;8.57;48.28;103676.84;5088553;28;20028;-67
2022/03/19 19:39:49;;;;;;;4.57;1.98;;;;;;;8.55;48.47;103681.25;5076874;28;20039;-66
2022/03/19 19:42:15;;;;;;;8.63;2.40;;;;;;;8.52;48.37;103688.25;5094986;28;20086;-67
2022/03/19 19:44:42;;;;;;;4.43;2.08;;;;;;;8.48;49.12;103675.03;5094541;28;20028;-67
2022/03/19 19:47:08;;;;;;;8.13;2.17;;;;;;;8.39;49.17;103673.16;5094797;28;20081;-67
2022/03/19 19:49:34;;;;;;;6.85;2.22;;;;;;;8.39;49.51;103672.25;5093497;28;20047;-67
2022/03/19 19:52:00;;;;;;;4.18;2.00;;;;;;;8.39;49.32;103674.88;5094401;28;20031;-67
2022/03/19 19:54:39;;;;;;;6.10;2.10;;;;;;;8.41;48.95;103666.09;5094557;28;20425;-67
2022/03/19 19:59:49;;;;;;;4.88;2.20;;;;;;;8.47;48.29;103663.56;5092894;28;20452;-67
2022/03/19 20:02:15;;;;;;;6.72;2.28;;;;;;;8.50;48.13;103657.44;5094451;28;20478;-67
2022/03/19 20:04:40;;;;;;;6.82;2.35;;;;;;;8.44;48.86;103659.97;5094139;28;20024;-67
2022/03/19 20:09:50;;;;;;;5.47;2.53;;;;;;;8.29;49.99;103666.00;5093688;28;20525;-67
2022/03/19 20:12:16;;;;;;;4.80;2.50;;;;;;;8.22;50.04;103662.41;5094074;28;20032;-67
2022/03/19 20:14:41;;;;;;;6.43;2.45;;;;;;;8.13;50.71;103660.56;5094107;28;20028;-67
2022/03/19 20:17:06;;;;;;;5.78;2.25;;;;;;;8.09;50.88;103656.09;5094327;28;20039;-67
2022/03/19 20:19:32;;;;;;;4.05;2.00;;;;;;;8.09;50.87;103665.78;5092600;28;20372;-66
2022/03/19 20:21:57;;;;;;;5.53;2.13;;;;;;;8.02;51.38;103665.72;5094590;28;20276;-67
2022/03/19 20:24:22;;;;;;;4.38;1.80;;;;;;;7.97;50.86;103663.91;5096315;28;20043;-67
2022/03/19 20:26:48;;;;;;;3.03;1.80;;;;;;;7.86;52.47;103655.84;5090574;28;20107;-66
2022/03/19 20:29:15;;;;;;;7.28;2.20;;;;;;;7.86;51.89;103651.47;5094167;28;20066;-67
2022/03/19 20:31:40;;;;;;;5.30;2.20;;;;;;;7.80;53.17;103646.13;5090128;28;20398;-66
2022/03/19 20:34:06;;;;;;;5.20;2.10;;;;;;;7.76;53.04;103654.84;5099619;28;20036;-66
2022/03/19 20:36:31;;;;;;;4.13;2.17;;;;;;;7.74;53.33;103650.41;5104990;28;20031;-68
2022/03/19 20:38:56;;;;;;;7.63;2.30;;;;;;;7.68;53.17;103651.22;5098321;28;20024;-66
2022/03/19 20:41:23;;;;;;;5.63;2.42;;;;;;;7.62;53.58;103646.78;5106030;28;20031;-66
2022/03/19 20:43:48;;;;;;;8.93;2.60;;;;;;;7.58;53.71;103647.59;5094260;28;20398;-66
2022/03/19 20:46:14;;;;;;;5.03;2.60;;;;;;;7.55;54.15;103647.56;5096204;28;20031;-66
2022/03/19 20:48:39;;;;;;;5.50;2.78;;;;;;;7.52;54.08;103642.25;5100254;28;20423;-67
2022/03/19 20:51:06;;;;;;;6.35;2.20;;;;;;;7.48;54.44;103632.50;5109825;28;20059;-66
2022/03/19 20:53:31;;;;;;;5.85;2.13;;;;;;;7.51;54.06;103643.13;5096768;28;20028;-65
2022/03/19 20:55:56;;;;;;;7.05;2.45;;;;;;;7.50;54.15;103636.94;5111141;28;20055;-68
2022/03/19 20:58:24;;;;;;;5.95;1.92;;;;;;;7.47;53.76;103647.47;5093584;28;20074;-66
2022/03/19 21:00:51;;;;;;;5.68;1.95;;;;;;;7.45;54.40;103638.63;5094413;28;20414;-67
2022/03/19 21:03:17;;;;;;;4.55;2.25;;;;;;;7.43;54.53;103635.09;5100983;28;20552;-67
2022/03/19 21:05:42;;;;;;;8.07;2.35;;;;;;;7.38;54.98;103642.94;5092835;28;20099;-67
2022/03/19 21:08:10;;;;;;;6.40;2.45;;;;;;;7.37;54.60;103630.63;5093244;28;20043;-67
2022/03/19 21:10:37;;;;;;;5.53;2.25;;;;;;;7.37;54.38;103638.53;5103954;28;20188;-67
2022/03/19 21:13:03;;;;;;;5.35;2.20;;;;;;;7.33;54.67;103643.75;5093118;28;20024;-67
2022/03/19 21:15:29;;;;;;;4.70;2.35;;;;;;;7.29;55.17;103636.63;5097653;28;20101;-67
2022/03/19 21:18:00;;;;;;;4.45;2.00;;;;;;;7.27;55.01;103626.09;5089552;28;20019;-67
2022/03/19 21:20:28;;;;;;;5.50;2.40;;;;;;;7.25;55.37;103633.09;5085830;28;20077;-67
2022/03/19 21:22:55;;;;;;;4.72;1.95;;;;;;;7.24;55.36;103623.41;5093056;28;20031;-67
2022/03/19 21:25:20;;;;;;;5.88;2.15;;;;;;;7.22;54.95;103623.41;5092992;28;20077;-66
2022/03/19 21:27:47;;;;;;;4.10;2.35;;;;;;;7.19;55.95;103625.09;5092354;28;20040;-67
2022/03/19 21:30:25;;;;;;;4.57;2.03;;;;;;;7.11;56.12;103614.47;5107473;28;20032;-66
2022/03/19 21:32:51;;;;;;;5.32;2.08;;;;;;;7.10;56.28;103624.94;5091462;28;20034;-66
2022/03/19 21:35:18;;;;;;;4.70;2.10;;;;;;;7.04;56.60;103616.09;5092586;28;20044;-66
2022/03/19 21:37:44;;;;;;;3.63;2.13;;;;;;;6.99;56.54;103614.25;5092563;28;20513;-66
2022/03/19 21:42:57;;;;;;;6.15;2.13;;;;;;;6.87;57.12;103605.31;5092646;28;20039;-67
2022/03/19 21:45:26;;;;;;;5.65;1.83;;;;;;;6.83;57.19;103603.50;5091094;28;20024;-67
2022/03/19 21:47:52;;;;;;;4.88;2.13;;;;;;;6.81;57.30;103606.97;5084002;28;20027;-67
2022/03/19 21:50:19;;;;;;;5.63;1.90;;;;;;;6.82;57.47;103601.72;5092420;28;20464;-66
2022/03/19 21:52:44;;;;;;;2.67;1.73;;;;;;;6.81;57.27;103584.16;5091190;28;20028;-67
2022/03/19 21:55:13;;;;;;;4.20;2.03;;;;;;;6.83;57.00;103597.31;5092439;28;20498;-66
2022/03/19 21:57:39;;;;;;;3.25;1.70;;;;;;;6.78;57.56;103589.38;5091182;28;20028;-67
2022/03/19 22:00:06;;;;;;;3.88;2.00;;;;;;;6.74;56.81;103595.47;5091755;28;20106;-67
2022/03/19 22:02:31;;;;;;;6.63;1.83;;;;;;;6.75;57.46;103584.03;5092195;28;20161;-66
2022/03/19 22:04:57;;;;;;;5.15;1.83;;;;;;;6.70;57.76;103591.91;5091775;28;20114;-67
2022/03/19 22:07:23;;;;;;;5.78;2.00;;;;;;;6.70;57.28;103589.25;5090938;28;20355;-67
2022/03/19 22:09:48;;;;;;;3.08;1.90;;;;;;;6.66;57.32;103587.44;5092165;28;20027;-67
2022/03/19 22:12:14;;;;;;;8.30;1.80;;;;;;;6.64;56.98;103578.63;5074090;28;20028;-66
2022/03/19 22:14:40;;;;;;;4.38;1.90;;;;;;;6.63;58.03;103573.34;5090629;28;20352;-66
2022/03/19 22:17:06;;;;;;;4.50;1.88;;;;;;;6.61;57.77;103573.31;5092262;28;20106;-65